sensor_id;sensor_type;location;lat;lon;timestamp;temperature;humidity
7686;DHT22;3885;51.474;-2.576;2022-10-31T00:01:36;13.20;99.90
7686;DHT22;3885;51.474;-2.576;2022-10-31T00:04:04;13.20;99.90
7686;DHT22;3885;51.474;-2.576;2022-10-31T00:06:31;13.20;99.90
7686;DHT22;3885;51.474;-2.576;2022-10-31T00:09:01;13.20;99.90
7686;DHT22;3885;51.474;-2.576;2022-10-31T00:11:28;13.30;99.90
7686;DHT22;3885;51.474;-2.576;2022-10-31T00:13:57;13.30;99.90
7686;DHT22;3885;51.474;-2.576;2022-10-31T00:16:26;13.30;99.90
7686;DHT22;3885;51.474;-2.576;2022-10-31T00:18:55;13.30;99.90
7686;DHT22;3885;51.474;-2.576;2022-10-31T00:21:22;13.40;99.90
7686;DHT22;3885;51.474;-2.576;2022-10-31T00:23:49;13.30;99.90
7686;DHT22;3885;51.474;-2.576;2022-10-31T00:26:16;13.40;99.90
7686;DHT22;3885;51.474;-2.576;2022-10-31T00:28:43;13.40;99.90
7686;DHT22;3885;51.474;-2.576;2022-10-31T00:31:12;13.40;99.90
7686;DHT22;3885;51.474;-2.576;2022-10-31T00:33:41;13.40;99.90
7686;DHT22;3885;51.474;-2.576;2022-10-31T00:36:11;13.40;99.90
7686;DHT22;3885;51.474;-2.576;2022-10-31T00:38:38;13.30;99.90
7686;DHT22;3885;51.474;-2.576;2022-10-31T00:41:05;13.30;99.90
7686;DHT22;3885;51.474;-2.576;2022-10-31T00:43:32;13.30;99.90
7686;DHT22;3885;51.474;-2.576;2022-10-31T00:48:26;13.30;99.90
7686;DHT22;3885;51.474;-2.576;2022-10-31T00:50:55;13.20;99.90
7686;DHT22;3885;51.474;-2.576;2022-10-31T00:53:22;13.20;99.90
7686;DHT22;3885;51.474;-2.576;2022-10-31T00:55:48;13.20;99.90
7686;DHT22;3885;51.474;-2.576;2022-10-31T00:58:15;13.20;99.90
7686;DHT22;3885;51.474;-2.576;2022-10-31T01:00:42;13.10;99.90
7686;DHT22;3885;51.474;-2.576;2022-10-31T01:03:09;13.20;99.90
7686;DHT22;3885;51.474;-2.576;2022-10-31T01:05:36;13.20;99.90
7686;DHT22;3885;51.474;-2.576;2022-10-31T01:08:05;13.10;99.90
7686;DHT22;3885;51.474;-2.576;2022-10-31T01:10:32;13.20;99.90
7686;DHT22;3885;51.474;-2.576;2022-10-31T01:12:58;13.20;99.90
7686;DHT22;3885;51.474;-2.576;2022-10-31T01:15:25;13.20;99.90
7686;DHT22;3885;51.474;-2.576;2022-10-31T01:17:52;13.20;99.90
7686;DHT22;3885;51.474;-2.576;2022-10-31T01:20:20;13.20;99.90
7686;DHT22;3885;51.474;-2.576;2022-10-31T01:22:47;13.10;99.90
7686;DHT22;3885;51.474;-2.576;2022-10-31T01:25:15;13.10;99.90
7686;DHT22;3885;51.474;-2.576;2022-10-31T01:27:43;13.10;99.90
7686;DHT22;3885;51.474;-2.576;2022-10-31T01:30:11;13.10;99.90
7686;DHT22;3885;51.474;-2.576;2022-10-31T01:32:38;13.10;99.90
7686;DHT22;3885;51.474;-2.576;2022-10-31T01:35:05;13.00;99.90
7686;DHT22;3885;51.474;-2.576;2022-10-31T01:37:32;13.00;99.90
7686;DHT22;3885;51.474;-2.576;2022-10-31T01:39:59;13.00;99.90
7686;DHT22;3885;51.474;-2.576;2022-10-31T01:42:27;13.00;99.90
7686;DHT22;3885;51.474;-2.576;2022-10-31T01:44:58;13.00;99.90
7686;DHT22;3885;51.474;-2.576;2022-10-31T01:47:40;13.10;99.90
7686;DHT22;3885;51.474;-2.576;2022-10-31T01:50:17;13.20;99.90
7686;DHT22;3885;51.474;-2.576;2022-10-31T01:52:47;13.20;99.90
7686;DHT22;3885;51.474;-2.576;2022-10-31T01:55:19;13.20;99.90
7686;DHT22;3885;51.474;-2.576;2022-10-31T01:57:51;13.20;99.90
7686;DHT22;3885;51.474;-2.576;2022-10-31T02:00:20;13.20;99.90
7686;DHT22;3885;51.474;-2.576;2022-10-31T02:02:48;13.20;99.90
7686;DHT22;3885;51.474;-2.576;2022-10-31T02:05:18;13.20;99.90
7686;DHT22;3885;51.474;-2.576;2022-10-31T02:07:49;13.30;99.90
7686;DHT22;3885;51.474;-2.576;2022-10-31T02:10:19;13.20;99.90
7686;DHT22;3885;51.474;-2.576;2022-10-31T02:12:50;13.20;99.90
7686;DHT22;3885;51.474;-2.576;2022-10-31T02:15:18;13.30;99.90
7686;DHT22;3885;51.474;-2.576;2022-10-31T02:17:45;13.30;99.90
7686;DHT22;3885;51.474;-2.576;2022-10-31T02:20:15;13.40;99.90
7686;DHT22;3885;51.474;-2.576;2022-10-31T02:26:16;13.40;99.90
7686;DHT22;3885;51.474;-2.576;2022-10-31T02:32:06;13.50;99.90
7686;DHT22;3885;51.474;-2.576;2022-10-31T02:34:39;13.50;99.90
7686;DHT22;3885;51.474;-2.576;2022-10-31T02:37:12;13.50;99.90
7686;DHT22;3885;51.474;-2.576;2022-10-31T02:39:47;13.50;99.90
7686;DHT22;3885;51.474;-2.576;2022-10-31T02:42:18;13.50;99.90
7686;DHT22;3885;51.474;-2.576;2022-10-31T02:44:54;13.50;99.90
7686;DHT22;3885;51.474;-2.576;2022-10-31T02:47:26;13.50;99.90
7686;DHT22;3885;51.474;-2.576;2022-10-31T02:49:56;13.50;99.90
7686;DHT22;3885;51.474;-2.576;2022-10-31T02:52:26;13.50;99.90
7686;DHT22;3885;51.474;-2.576;2022-10-31T02:54:53;13.50;99.90
7686;DHT22;3885;51.474;-2.576;2022-10-31T02:57:22;13.50;99.90
7686;DHT22;3885;51.474;-2.576;2022-10-31T02:59:54;13.50;99.90
7686;DHT22;3885;51.474;-2.576;2022-10-31T03:02:39;13.40;99.90
7686;DHT22;3885;51.474;-2.576;2022-10-31T03:05:24;13.40;99.90
7686;DHT22;3885;51.474;-2.576;2022-10-31T03:08:01;13.30;99.90
7686;DHT22;3885;51.474;-2.576;2022-10-31T03:10:38;13.30;99.90
7686;DHT22;3885;51.474;-2.576;2022-10-31T03:13:10;13.30;99.90
7686;DHT22;3885;51.474;-2.576;2022-10-31T03:15:42;13.30;99.90
7686;DHT22;3885;51.474;-2.576;2022-10-31T03:18:16;13.30;99.90
7686;DHT22;3885;51.474;-2.576;2022-10-31T03:20:47;13.20;99.90
7686;DHT22;3885;51.474;-2.576;2022-10-31T03:23:18;13.10;99.90
7686;DHT22;3885;51.474;-2.576;2022-10-31T03:25:46;13.10;99.90
7686;DHT22;3885;51.474;-2.576;2022-10-31T03:28:17;13.00;99.90
7686;DHT22;3885;51.474;-2.576;2022-10-31T03:30:45;13.00;99.90
7686;DHT22;3885;51.474;-2.576;2022-10-31T03:33:17;13.00;99.90
7686;DHT22;3885;51.474;-2.576;2022-10-31T03:35:48;12.90;99.90
7686;DHT22;3885;51.474;-2.576;2022-10-31T03:38:18;12.90;99.90
7686;DHT22;3885;51.474;-2.576;2022-10-31T03:40:47;12.70;99.90
7686;DHT22;3885;51.474;-2.576;2022-10-31T03:43:24;12.70;99.90
7686;DHT22;3885;51.474;-2.576;2022-10-31T03:45:52;12.70;99.90
7686;DHT22;3885;51.474;-2.576;2022-10-31T03:48:20;12.70;99.90
7686;DHT22;3885;51.474;-2.576;2022-10-31T03:50:52;12.60;99.90
7686;DHT22;3885;51.474;-2.576;2022-10-31T03:53:29;12.60;99.90
7686;DHT22;3885;51.474;-2.576;2022-10-31T03:56:01;12.60;99.90
7686;DHT22;3885;51.474;-2.576;2022-10-31T03:58:32;12.60;99.90
7686;DHT22;3885;51.474;-2.576;2022-10-31T04:01:06;12.60;99.90
7686;DHT22;3885;51.474;-2.576;2022-10-31T04:03:37;12.60;99.90
7686;DHT22;3885;51.474;-2.576;2022-10-31T04:06:08;12.70;99.90
7686;DHT22;3885;51.474;-2.576;2022-10-31T04:08:39;12.70;99.90
7686;DHT22;3885;51.474;-2.576;2022-10-31T04:11:08;12.70;99.90
7686;DHT22;3885;51.474;-2.576;2022-10-31T04:13:37;12.70;99.90
7686;DHT22;3885;51.474;-2.576;2022-10-31T04:16:07;12.80;99.90
7686;DHT22;3885;51.474;-2.576;2022-10-31T04:18:36;12.70;99.90
7686;DHT22;3885;51.474;-2.576;2022-10-31T04:21:05;12.70;99.90
7686;DHT22;3885;51.474;-2.576;2022-10-31T04:23:33;12.70;99.90
7686;DHT22;3885;51.474;-2.576;2022-10-31T04:26:01;12.60;99.90
7686;DHT22;3885;51.474;-2.576;2022-10-31T04:28:28;12.60;99.90
7686;DHT22;3885;51.474;-2.576;2022-10-31T04:30:55;12.60;99.90
7686;DHT22;3885;51.474;-2.576;2022-10-31T04:33:22;12.60;99.90
7686;DHT22;3885;51.474;-2.576;2022-10-31T04:35:50;12.60;99.90
7686;DHT22;3885;51.474;-2.576;2022-10-31T04:38:17;12.60;99.90
7686;DHT22;3885;51.474;-2.576;2022-10-31T04:40:45;12.60;99.90
7686;DHT22;3885;51.474;-2.576;2022-10-31T04:43:12;12.70;99.90
7686;DHT22;3885;51.474;-2.576;2022-10-31T04:45:39;12.80;99.90
7686;DHT22;3885;51.474;-2.576;2022-10-31T04:48:06;12.80;99.90
7686;DHT22;3885;51.474;-2.576;2022-10-31T04:50:32;12.90;99.90
7686;DHT22;3885;51.474;-2.576;2022-10-31T04:53:01;12.80;99.90
7686;DHT22;3885;51.474;-2.576;2022-10-31T04:55:28;12.80;99.90
7686;DHT22;3885;51.474;-2.576;2022-10-31T04:57:54;12.80;99.90
7686;DHT22;3885;51.474;-2.576;2022-10-31T05:00:22;12.80;99.90
7686;DHT22;3885;51.474;-2.576;2022-10-31T05:02:51;12.80;99.90
7686;DHT22;3885;51.474;-2.576;2022-10-31T05:05:23;12.80;99.90
7686;DHT22;3885;51.474;-2.576;2022-10-31T05:07:50;12.80;99.90
7686;DHT22;3885;51.474;-2.576;2022-10-31T05:10:20;12.70;99.90
7686;DHT22;3885;51.474;-2.576;2022-10-31T05:12:48;12.70;99.90
7686;DHT22;3885;51.474;-2.576;2022-10-31T05:15:16;12.70;99.90
7686;DHT22;3885;51.474;-2.576;2022-10-31T05:17:43;12.60;99.90
7686;DHT22;3885;51.474;-2.576;2022-10-31T05:20:11;12.60;99.90
7686;DHT22;3885;51.474;-2.576;2022-10-31T05:22:42;12.60;99.90
7686;DHT22;3885;51.474;-2.576;2022-10-31T05:25:09;12.50;99.90
7686;DHT22;3885;51.474;-2.576;2022-10-31T05:27:39;12.40;99.90
7686;DHT22;3885;51.474;-2.576;2022-10-31T05:30:07;12.40;99.90
7686;DHT22;3885;51.474;-2.576;2022-10-31T05:32:37;12.30;99.90
7686;DHT22;3885;51.474;-2.576;2022-10-31T05:35:05;12.20;99.90
7686;DHT22;3885;51.474;-2.576;2022-10-31T05:37:34;12.20;99.90
7686;DHT22;3885;51.474;-2.576;2022-10-31T05:40:01;12.10;99.90
7686;DHT22;3885;51.474;-2.576;2022-10-31T05:42:28;12.10;99.90
7686;DHT22;3885;51.474;-2.576;2022-10-31T05:44:56;12.10;99.90
7686;DHT22;3885;51.474;-2.576;2022-10-31T05:47:23;12.10;99.90
7686;DHT22;3885;51.474;-2.576;2022-10-31T05:49:50;12.20;99.90
7686;DHT22;3885;51.474;-2.576;2022-10-31T05:52:17;12.20;99.90
7686;DHT22;3885;51.474;-2.576;2022-10-31T05:54:44;12.20;99.90
7686;DHT22;3885;51.474;-2.576;2022-10-31T05:57:11;12.20;99.90
7686;DHT22;3885;51.474;-2.576;2022-10-31T05:59:38;12.20;99.90
7686;DHT22;3885;51.474;-2.576;2022-10-31T06:02:06;12.20;99.90
7686;DHT22;3885;51.474;-2.576;2022-10-31T06:04:33;12.20;99.90
7686;DHT22;3885;51.474;-2.576;2022-10-31T06:07:00;12.30;99.90
7686;DHT22;3885;51.474;-2.576;2022-10-31T06:09:27;12.50;99.90
7686;DHT22;3885;51.474;-2.576;2022-10-31T06:11:53;12.60;99.90
7686;DHT22;3885;51.474;-2.576;2022-10-31T06:14:20;12.60;99.90
7686;DHT22;3885;51.474;-2.576;2022-10-31T06:16:47;12.60;99.90
7686;DHT22;3885;51.474;-2.576;2022-10-31T06:19:15;12.60;99.90
7686;DHT22;3885;51.474;-2.576;2022-10-31T06:21:42;12.60;99.90
7686;DHT22;3885;51.474;-2.576;2022-10-31T06:24:09;12.70;99.90
7686;DHT22;3885;51.474;-2.576;2022-10-31T06:26:36;12.70;99.90
7686;DHT22;3885;51.474;-2.576;2022-10-31T06:29:03;12.80;99.90
7686;DHT22;3885;51.474;-2.576;2022-10-31T06:31:30;12.80;99.90
7686;DHT22;3885;51.474;-2.576;2022-10-31T06:33:57;12.70;99.90
7686;DHT22;3885;51.474;-2.576;2022-10-31T06:36:25;12.80;99.90
7686;DHT22;3885;51.474;-2.576;2022-10-31T06:38:52;12.80;99.90
7686;DHT22;3885;51.474;-2.576;2022-10-31T06:41:19;12.80;99.90
7686;DHT22;3885;51.474;-2.576;2022-10-31T06:43:46;12.80;99.90
7686;DHT22;3885;51.474;-2.576;2022-10-31T06:46:13;12.80;99.90
7686;DHT22;3885;51.474;-2.576;2022-10-31T06:48:40;12.80;99.90
7686;DHT22;3885;51.474;-2.576;2022-10-31T06:51:08;12.80;99.90
7686;DHT22;3885;51.474;-2.576;2022-10-31T06:53:36;12.80;99.90
7686;DHT22;3885;51.474;-2.576;2022-10-31T06:56:03;12.90;99.90
7686;DHT22;3885;51.474;-2.576;2022-10-31T06:58:30;12.90;99.90
7686;DHT22;3885;51.474;-2.576;2022-10-31T07:00:59;12.90;99.90
7686;DHT22;3885;51.474;-2.576;2022-10-31T07:03:26;12.90;99.90
7686;DHT22;3885;51.474;-2.576;2022-10-31T07:05:55;12.90;99.90
7686;DHT22;3885;51.474;-2.576;2022-10-31T07:08:22;13.00;99.90
7686;DHT22;3885;51.474;-2.576;2022-10-31T07:10:53;13.00;99.90
7686;DHT22;3885;51.474;-2.576;2022-10-31T07:13:21;12.90;99.90
7686;DHT22;3885;51.474;-2.576;2022-10-31T07:15:51;13.00;99.90
7686;DHT22;3885;51.474;-2.576;2022-10-31T07:18:19;12.90;99.90
7686;DHT22;3885;51.474;-2.576;2022-10-31T07:20:46;12.90;99.90
7686;DHT22;3885;51.474;-2.576;2022-10-31T07:23:13;13.00;99.90
7686;DHT22;3885;51.474;-2.576;2022-10-31T07:25:40;13.00;99.90
7686;DHT22;3885;51.474;-2.576;2022-10-31T07:28:09;13.00;99.90
7686;DHT22;3885;51.474;-2.576;2022-10-31T07:30:37;13.00;99.90
7686;DHT22;3885;51.474;-2.576;2022-10-31T07:33:04;13.10;99.90
7686;DHT22;3885;51.474;-2.576;2022-10-31T07:35:32;13.10;99.90
7686;DHT22;3885;51.474;-2.576;2022-10-31T07:38:07;13.10;99.90
7686;DHT22;3885;51.474;-2.576;2022-10-31T07:40:34;13.10;99.90
7686;DHT22;3885;51.474;-2.576;2022-10-31T07:43:01;13.10;99.90
7686;DHT22;3885;51.474;-2.576;2022-10-31T07:45:30;13.10;99.90
7686;DHT22;3885;51.474;-2.576;2022-10-31T07:47:57;13.10;99.90
7686;DHT22;3885;51.474;-2.576;2022-10-31T07:50:25;13.10;99.90
7686;DHT22;3885;51.474;-2.576;2022-10-31T07:52:59;13.20;99.90
7686;DHT22;3885;51.474;-2.576;2022-10-31T07:55:27;13.20;99.90
7686;DHT22;3885;51.474;-2.576;2022-10-31T07:57:58;13.20;99.90
7686;DHT22;3885;51.474;-2.576;2022-10-31T08:00:25;13.30;99.90
7686;DHT22;3885;51.474;-2.576;2022-10-31T08:03:01;13.40;99.90
7686;DHT22;3885;51.474;-2.576;2022-10-31T08:05:29;13.40;99.90
7686;DHT22;3885;51.474;-2.576;2022-10-31T08:07:56;13.40;99.90
7686;DHT22;3885;51.474;-2.576;2022-10-31T08:10:24;13.60;99.90
7686;DHT22;3885;51.474;-2.576;2022-10-31T08:12:56;13.60;99.90
7686;DHT22;3885;51.474;-2.576;2022-10-31T08:15:23;13.60;99.90
7686;DHT22;3885;51.474;-2.576;2022-10-31T08:17:50;13.70;99.90
7686;DHT22;3885;51.474;-2.576;2022-10-31T08:20:19;13.80;99.90
7686;DHT22;3885;51.474;-2.576;2022-10-31T08:22:56;13.80;99.90
7686;DHT22;3885;51.474;-2.576;2022-10-31T08:25:36;13.90;99.90
7686;DHT22;3885;51.474;-2.576;2022-10-31T08:28:03;13.90;99.90
7686;DHT22;3885;51.474;-2.576;2022-10-31T08:30:32;14.00;99.90
7686;DHT22;3885;51.474;-2.576;2022-10-31T08:33:00;14.00;99.90
7686;DHT22;3885;51.474;-2.576;2022-10-31T08:35:29;14.00;99.90
7686;DHT22;3885;51.474;-2.576;2022-10-31T08:37:56;14.10;99.90
7686;DHT22;3885;51.474;-2.576;2022-10-31T08:40:25;14.10;99.90
7686;DHT22;3885;51.474;-2.576;2022-10-31T08:42:57;14.10;99.90
7686;DHT22;3885;51.474;-2.576;2022-10-31T08:45:24;14.10;99.90
7686;DHT22;3885;51.474;-2.576;2022-10-31T08:47:51;14.20;99.90
7686;DHT22;3885;51.474;-2.576;2022-10-31T08:50:18;14.20;99.90
7686;DHT22;3885;51.474;-2.576;2022-10-31T08:52:46;14.20;99.90
7686;DHT22;3885;51.474;-2.576;2022-10-31T08:55:13;14.30;99.90
7686;DHT22;3885;51.474;-2.576;2022-10-31T08:57:40;14.30;99.90
7686;DHT22;3885;51.474;-2.576;2022-10-31T09:00:08;14.30;99.90
7686;DHT22;3885;51.474;-2.576;2022-10-31T09:02:35;14.30;99.90
7686;DHT22;3885;51.474;-2.576;2022-10-31T09:05:04;14.40;99.90
7686;DHT22;3885;51.474;-2.576;2022-10-31T09:07:31;14.40;99.90
7686;DHT22;3885;51.474;-2.576;2022-10-31T09:09:59;14.40;99.90
7686;DHT22;3885;51.474;-2.576;2022-10-31T09:12:26;14.40;99.90
7686;DHT22;3885;51.474;-2.576;2022-10-31T09:14:53;14.30;99.90
7686;DHT22;3885;51.474;-2.576;2022-10-31T09:17:20;14.30;99.90
7686;DHT22;3885;51.474;-2.576;2022-10-31T09:19:47;14.30;99.90
7686;DHT22;3885;51.474;-2.576;2022-10-31T09:22:14;14.30;99.90
7686;DHT22;3885;51.474;-2.576;2022-10-31T09:24:41;14.40;99.90
7686;DHT22;3885;51.474;-2.576;2022-10-31T09:27:09;14.40;99.90
7686;DHT22;3885;51.474;-2.576;2022-10-31T09:29:36;14.30;99.90
7686;DHT22;3885;51.474;-2.576;2022-10-31T09:32:03;14.30;99.90
7686;DHT22;3885;51.474;-2.576;2022-10-31T09:34:30;14.30;99.90
7686;DHT22;3885;51.474;-2.576;2022-10-31T09:36:57;14.30;99.90
7686;DHT22;3885;51.474;-2.576;2022-10-31T09:42:12;14.30;99.90
7686;DHT22;3885;51.474;-2.576;2022-10-31T09:44:50;14.30;99.90
7686;DHT22;3885;51.474;-2.576;2022-10-31T09:47:26;14.30;99.90
7686;DHT22;3885;51.474;-2.576;2022-10-31T09:50:07;14.30;99.90
7686;DHT22;3885;51.474;-2.576;2022-10-31T09:52:40;14.30;99.90
7686;DHT22;3885;51.474;-2.576;2022-10-31T09:55:14;14.40;99.90
7686;DHT22;3885;51.474;-2.576;2022-10-31T09:57:44;14.40;99.90
7686;DHT22;3885;51.474;-2.576;2022-10-31T10:00:16;14.40;99.90
7686;DHT22;3885;51.474;-2.576;2022-10-31T10:02:47;14.40;99.90
7686;DHT22;3885;51.474;-2.576;2022-10-31T10:05:18;14.50;99.90
7686;DHT22;3885;51.474;-2.576;2022-10-31T10:07:53;14.60;99.90
7686;DHT22;3885;51.474;-2.576;2022-10-31T10:10:27;14.60;99.90
7686;DHT22;3885;51.474;-2.576;2022-10-31T10:13:09;14.70;99.90
7686;DHT22;3885;51.474;-2.576;2022-10-31T10:15:52;14.80;99.90
7686;DHT22;3885;51.474;-2.576;2022-10-31T10:18:31;14.90;99.90
7686;DHT22;3885;51.474;-2.576;2022-10-31T10:21:12;15.00;99.90
7686;DHT22;3885;51.474;-2.576;2022-10-31T10:23:53;15.10;99.90
7686;DHT22;3885;51.474;-2.576;2022-10-31T10:26:24;15.10;99.90
7686;DHT22;3885;51.474;-2.576;2022-10-31T10:28:58;15.20;99.90
7686;DHT22;3885;51.474;-2.576;2022-10-31T10:31:30;15.20;99.90
7686;DHT22;3885;51.474;-2.576;2022-10-31T10:34:02;15.30;99.90
7686;DHT22;3885;51.474;-2.576;2022-10-31T10:36:36;15.40;99.90
7686;DHT22;3885;51.474;-2.576;2022-10-31T10:39:10;15.40;99.90
7686;DHT22;3885;51.474;-2.576;2022-10-31T10:41:38;15.60;99.90
7686;DHT22;3885;51.474;-2.576;2022-10-31T10:44:10;15.60;99.90
7686;DHT22;3885;51.474;-2.576;2022-10-31T10:46:41;15.60;99.90
7686;DHT22;3885;51.474;-2.576;2022-10-31T10:49:31;15.60;99.90
7686;DHT22;3885;51.474;-2.576;2022-10-31T10:52:01;15.60;99.90
7686;DHT22;3885;51.474;-2.576;2022-10-31T10:54:46;15.60;99.90
7686;DHT22;3885;51.474;-2.576;2022-10-31T10:57:26;15.70;99.90
7686;DHT22;3885;51.474;-2.576;2022-10-31T10:59:55;15.70;99.90
7686;DHT22;3885;51.474;-2.576;2022-10-31T11:02:26;15.70;99.90
7686;DHT22;3885;51.474;-2.576;2022-10-31T11:04:54;15.70;99.90
7686;DHT22;3885;51.474;-2.576;2022-10-31T11:07:22;15.70;99.90
7686;DHT22;3885;51.474;-2.576;2022-10-31T11:09:49;16.00;99.90
7686;DHT22;3885;51.474;-2.576;2022-10-31T11:12:20;16.10;99.90
7686;DHT22;3885;51.474;-2.576;2022-10-31T11:14:51;16.30;99.90
7686;DHT22;3885;51.474;-2.576;2022-10-31T11:17:26;16.30;99.90
7686;DHT22;3885;51.474;-2.576;2022-10-31T11:20:05;16.40;99.90
7686;DHT22;3885;51.474;-2.576;2022-10-31T11:22:33;16.40;99.90
7686;DHT22;3885;51.474;-2.576;2022-10-31T11:25:00;16.30;99.90
7686;DHT22;3885;51.474;-2.576;2022-10-31T11:27:27;16.30;99.90
7686;DHT22;3885;51.474;-2.576;2022-10-31T11:30:05;16.20;99.90
7686;DHT22;3885;51.474;-2.576;2022-10-31T11:32:34;16.20;99.90
7686;DHT22;3885;51.474;-2.576;2022-10-31T11:35:03;16.30;99.90
7686;DHT22;3885;51.474;-2.576;2022-10-31T11:37:41;16.30;99.90
7686;DHT22;3885;51.474;-2.576;2022-10-31T11:40:16;16.20;99.90
7686;DHT22;3885;51.474;-2.576;2022-10-31T11:42:44;16.20;99.90
7686;DHT22;3885;51.474;-2.576;2022-10-31T11:45:16;16.10;99.90
7686;DHT22;3885;51.474;-2.576;2022-10-31T11:47:47;16.10;99.90
7686;DHT22;3885;51.474;-2.576;2022-10-31T11:50:19;16.00;99.90
7686;DHT22;3885;51.474;-2.576;2022-10-31T11:52:47;16.00;99.90
7686;DHT22;3885;51.474;-2.576;2022-10-31T11:55:16;16.10;99.90
7686;DHT22;3885;51.474;-2.576;2022-10-31T11:57:46;16.10;99.90
7686;DHT22;3885;51.474;-2.576;2022-10-31T12:00:22;16.10;99.90
7686;DHT22;3885;51.474;-2.576;2022-10-31T12:02:51;16.10;99.90
7686;DHT22;3885;51.474;-2.576;2022-10-31T12:05:31;16.10;99.90
7686;DHT22;3885;51.474;-2.576;2022-10-31T12:07:59;16.20;99.90
7686;DHT22;3885;51.474;-2.576;2022-10-31T12:10:30;16.20;99.90
7686;DHT22;3885;51.474;-2.576;2022-10-31T12:13:11;16.20;99.90
7686;DHT22;3885;51.474;-2.576;2022-10-31T12:15:49;16.30;99.90
7686;DHT22;3885;51.474;-2.576;2022-10-31T12:18:44;16.40;99.90
7686;DHT22;3885;51.474;-2.576;2022-10-31T12:21:23;16.50;99.90
7686;DHT22;3885;51.474;-2.576;2022-10-31T12:23:59;16.50;99.90
7686;DHT22;3885;51.474;-2.576;2022-10-31T12:26:34;16.70;99.90
7686;DHT22;3885;51.474;-2.576;2022-10-31T12:29:10;16.80;99.90
7686;DHT22;3885;51.474;-2.576;2022-10-31T12:31:50;17.00;99.90
7686;DHT22;3885;51.474;-2.576;2022-10-31T12:34:49;17.10;99.90
7686;DHT22;3885;51.474;-2.576;2022-10-31T12:37:30;17.20;99.90
7686;DHT22;3885;51.474;-2.576;2022-10-31T12:40:12;17.20;99.90
7686;DHT22;3885;51.474;-2.576;2022-10-31T12:42:53;17.20;99.90
7686;DHT22;3885;51.474;-2.576;2022-10-31T12:45:45;17.20;99.90
7686;DHT22;3885;51.474;-2.576;2022-10-31T12:48:36;17.10;99.90
7686;DHT22;3885;51.474;-2.576;2022-10-31T12:51:11;17.10;99.90
7686;DHT22;3885;51.474;-2.576;2022-10-31T12:53:52;17.10;99.90
7686;DHT22;3885;51.474;-2.576;2022-10-31T12:56:30;17.20;99.90
7686;DHT22;3885;51.474;-2.576;2022-10-31T12:59:03;17.30;99.90
7686;DHT22;3885;51.474;-2.576;2022-10-31T13:01:35;17.20;99.90
7686;DHT22;3885;51.474;-2.576;2022-10-31T13:04:05;17.30;99.90
7686;DHT22;3885;51.474;-2.576;2022-10-31T13:06:42;17.30;99.90
7686;DHT22;3885;51.474;-2.576;2022-10-31T13:09:15;17.40;99.90
7686;DHT22;3885;51.474;-2.576;2022-10-31T13:11:46;17.60;99.90
7686;DHT22;3885;51.474;-2.576;2022-10-31T13:14:22;17.60;99.90
7686;DHT22;3885;51.474;-2.576;2022-10-31T13:16:50;17.60;99.90
7686;DHT22;3885;51.474;-2.576;2022-10-31T13:19:23;17.50;99.90
7686;DHT22;3885;51.474;-2.576;2022-10-31T13:21:58;17.40;99.90
7686;DHT22;3885;51.474;-2.576;2022-10-31T13:24:31;17.40;99.90
7686;DHT22;3885;51.474;-2.576;2022-10-31T13:27:02;17.40;99.90
7686;DHT22;3885;51.474;-2.576;2022-10-31T13:29:33;17.30;99.90
7686;DHT22;3885;51.474;-2.576;2022-10-31T13:32:05;17.30;99.90
7686;DHT22;3885;51.474;-2.576;2022-10-31T13:34:34;17.20;99.90
7686;DHT22;3885;51.474;-2.576;2022-10-31T13:37:12;17.10;99.90
7686;DHT22;3885;51.474;-2.576;2022-10-31T13:39:58;17.10;99.90
7686;DHT22;3885;51.474;-2.576;2022-10-31T13:42:39;17.10;99.90
7686;DHT22;3885;51.474;-2.576;2022-10-31T13:45:18;17.10;99.90
7686;DHT22;3885;51.474;-2.576;2022-10-31T13:47:56;17.20;99.90
7686;DHT22;3885;51.474;-2.576;2022-10-31T13:50:25;17.20;99.90
7686;DHT22;3885;51.474;-2.576;2022-10-31T13:53:09;17.20;99.90
7686;DHT22;3885;51.474;-2.576;2022-10-31T13:55:39;17.20;99.90
7686;DHT22;3885;51.474;-2.576;2022-10-31T13:58:21;17.20;99.90
7686;DHT22;3885;51.474;-2.576;2022-10-31T14:01:04;17.20;99.90
7686;DHT22;3885;51.474;-2.576;2022-10-31T14:03:34;17.10;99.90
7686;DHT22;3885;51.474;-2.576;2022-10-31T14:06:02;17.10;99.90
7686;DHT22;3885;51.474;-2.576;2022-10-31T14:08:35;17.20;99.90
7686;DHT22;3885;51.474;-2.576;2022-10-31T14:11:03;17.20;99.90
7686;DHT22;3885;51.474;-2.576;2022-10-31T14:13:32;17.20;99.90
7686;DHT22;3885;51.474;-2.576;2022-10-31T14:16:01;17.20;99.90
7686;DHT22;3885;51.474;-2.576;2022-10-31T14:18:32;17.20;99.90
7686;DHT22;3885;51.474;-2.576;2022-10-31T14:20:59;17.20;99.90
7686;DHT22;3885;51.474;-2.576;2022-10-31T14:23:36;17.20;99.90
7686;DHT22;3885;51.474;-2.576;2022-10-31T14:26:34;17.20;99.90
7686;DHT22;3885;51.474;-2.576;2022-10-31T14:29:22;17.10;99.90
7686;DHT22;3885;51.474;-2.576;2022-10-31T14:31:58;17.10;99.90
7686;DHT22;3885;51.474;-2.576;2022-10-31T14:34:29;17.10;99.90
7686;DHT22;3885;51.474;-2.576;2022-10-31T14:37:38;17.00;99.90
7686;DHT22;3885;51.474;-2.576;2022-10-31T14:40:25;16.90;99.90
7686;DHT22;3885;51.474;-2.576;2022-10-31T14:43:21;16.90;99.90
7686;DHT22;3885;51.474;-2.576;2022-10-31T14:45:59;16.90;99.90
7686;DHT22;3885;51.474;-2.576;2022-10-31T14:48:53;16.80;99.90
7686;DHT22;3885;51.474;-2.576;2022-10-31T14:51:28;16.70;99.90
7686;DHT22;3885;51.474;-2.576;2022-10-31T14:53:57;16.70;99.90
7686;DHT22;3885;51.474;-2.576;2022-10-31T14:56:29;16.60;99.90
7686;DHT22;3885;51.474;-2.576;2022-10-31T14:58:58;16.50;99.90
7686;DHT22;3885;51.474;-2.576;2022-10-31T15:01:28;16.50;99.90
7686;DHT22;3885;51.474;-2.576;2022-10-31T15:04:00;16.50;99.90
7686;DHT22;3885;51.474;-2.576;2022-10-31T15:06:31;16.50;99.90
7686;DHT22;3885;51.474;-2.576;2022-10-31T15:09:04;16.40;99.90
7686;DHT22;3885;51.474;-2.576;2022-10-31T15:11:37;16.40;99.90
7686;DHT22;3885;51.474;-2.576;2022-10-31T15:14:20;16.30;99.90
7686;DHT22;3885;51.474;-2.576;2022-10-31T15:16:48;16.30;99.90
7686;DHT22;3885;51.474;-2.576;2022-10-31T15:19:20;16.30;99.90
7686;DHT22;3885;51.474;-2.576;2022-10-31T15:21:47;16.20;99.90
7686;DHT22;3885;51.474;-2.576;2022-10-31T15:24:16;16.20;99.90
7686;DHT22;3885;51.474;-2.576;2022-10-31T15:26:47;16.30;99.90
7686;DHT22;3885;51.474;-2.576;2022-10-31T15:29:15;16.20;99.90
7686;DHT22;3885;51.474;-2.576;2022-10-31T15:31:50;16.00;99.90
7686;DHT22;3885;51.474;-2.576;2022-10-31T15:34:21;15.90;99.90
7686;DHT22;3885;51.474;-2.576;2022-10-31T15:36:49;15.70;99.90
7686;DHT22;3885;51.474;-2.576;2022-10-31T15:39:16;15.60;99.90
7686;DHT22;3885;51.474;-2.576;2022-10-31T15:41:49;15.40;99.90
7686;DHT22;3885;51.474;-2.576;2022-10-31T15:44:21;15.30;99.90
7686;DHT22;3885;51.474;-2.576;2022-10-31T15:46:56;15.30;99.90
7686;DHT22;3885;51.474;-2.576;2022-10-31T15:49:29;15.20;99.90
7686;DHT22;3885;51.474;-2.576;2022-10-31T15:51:57;15.20;99.90
7686;DHT22;3885;51.474;-2.576;2022-10-31T15:54:29;15.20;99.90
7686;DHT22;3885;51.474;-2.576;2022-10-31T15:56:57;15.20;99.90
7686;DHT22;3885;51.474;-2.576;2022-10-31T15:59:26;15.20;99.90
7686;DHT22;3885;51.474;-2.576;2022-10-31T16:02:01;15.20;99.90
7686;DHT22;3885;51.474;-2.576;2022-10-31T16:04:29;15.10;99.90
7686;DHT22;3885;51.474;-2.576;2022-10-31T16:06:59;15.10;99.90
7686;DHT22;3885;51.474;-2.576;2022-10-31T16:09:27;15.00;99.90
7686;DHT22;3885;51.474;-2.576;2022-10-31T16:11:57;15.00;99.90
7686;DHT22;3885;51.474;-2.576;2022-10-31T16:14:27;15.00;99.90
7686;DHT22;3885;51.474;-2.576;2022-10-31T16:16:56;15.00;99.90
7686;DHT22;3885;51.474;-2.576;2022-10-31T16:19:27;15.00;99.90
7686;DHT22;3885;51.474;-2.576;2022-10-31T16:22:02;15.00;99.90